sensor_id;sensor_type;location;lat;lon;timestamp;pressure;altitude;pressure_sealevel;temperature;humidity
57114;BME280;42994;51.606;9.988;2023-02-23T00:01:17;98587.88;;;7.21;100.00
57114;BME280;42994;51.606;9.988;2023-02-23T00:03:44;98578.56;;;7.17;100.00
57114;BME280;42994;51.606;9.988;2023-02-23T00:06:13;98594.56;;;7.17;100.00
57114;BME280;42994;51.606;9.988;2023-02-23T00:08:40;98589.59;;;7.13;100.00
57114;BME280;42994;51.606;9.988;2023-02-23T00:11:10;98587.41;;;7.17;100.00
57114;BME280;42994;51.606;9.988;2023-02-23T00:13:37;98586.47;;;7.10;100.00
57114;BME280;42994;51.606;9.988;2023-02-23T00:16:05;98588.47;;;7.08;100.00
57114;BME280;42994;51.606;9.988;2023-02-23T00:18:32;98589.56;;;6.99;100.00
57114;BME280;42994;51.606;9.988;2023-02-23T00:21:13;98592.03;;;7.00;100.00
57114;BME280;42994;51.606;9.988;2023-02-23T00:23:41;98587.63;;;6.92;100.00
57114;BME280;42994;51.606;9.988;2023-02-23T00:26:10;98600.81;;;6.86;100.00
57114;BME280;42994;51.606;9.988;2023-02-23T00:28:39;98589.63;;;6.67;100.00
57114;BME280;42994;51.606;9.988;2023-02-23T00:31:08;98591.22;;;6.77;100.00
57114;BME280;42994;51.606;9.988;2023-02-23T00:33:34;98593.19;;;6.83;100.00
57114;BME280;42994;51.606;9.988;2023-02-23T00:36:07;98588.50;;;6.85;100.00
57114;BME280;42994;51.606;9.988;2023-02-23T00:38:35;98591.13;;;6.70;100.00
57114;BME280;42994;51.606;9.988;2023-02-23T00:41:05;98591.59;;;6.73;100.00
57114;BME280;42994;51.606;9.988;2023-02-23T00:43:35;98590.81;;;6.65;100.00
57114;BME280;42994;51.606;9.988;2023-02-23T00:46:03;98594.38;;;6.57;100.00
57114;BME280;42994;51.606;9.988;2023-02-23T00:48:33;98601.31;;;6.66;100.00
57114;BME280;42994;51.606;9.988;2023-02-23T00:51:01;98597.56;;;6.44;100.00
57114;BME280;42994;51.606;9.988;2023-02-23T00:53:28;98599.00;;;6.55;100.00
57114;BME280;42994;51.606;9.988;2023-02-23T00:55:55;98593.94;;;6.45;100.00
57114;BME280;42994;51.606;9.988;2023-02-23T00:58:23;98603.75;;;6.45;100.00
57114;BME280;42994;51.606;9.988;2023-02-23T01:00:52;98592.94;;;6.46;100.00
57114;BME280;42994;51.606;9.988;2023-02-23T01:03:20;98595.78;;;6.45;100.00
57114;BME280;42994;51.606;9.988;2023-02-23T01:05:46;98590.13;;;6.40;100.00
57114;BME280;42994;51.606;9.988;2023-02-23T01:08:15;98601.03;;;6.22;100.00
57114;BME280;42994;51.606;9.988;2023-02-23T01:10:42;98599.59;;;6.42;100.00
57114;BME280;42994;51.606;9.988;2023-02-23T01:13:16;98600.63;;;6.41;100.00
57114;BME280;42994;51.606;9.988;2023-02-23T01:15:43;98604.31;;;6.32;100.00
57114;BME280;42994;51.606;9.988;2023-02-23T01:18:14;98609.50;;;6.25;100.00
57114;BME280;42994;51.606;9.988;2023-02-23T01:20:41;98605.16;;;6.32;100.00
57114;BME280;42994;51.606;9.988;2023-02-23T01:23:10;98604.50;;;6.30;100.00
57114;BME280;42994;51.606;9.988;2023-02-23T01:25:38;98600.03;;;6.23;100.00
57114;BME280;42994;51.606;9.988;2023-02-23T01:28:07;98599.09;;;6.15;100.00
57114;BME280;42994;51.606;9.988;2023-02-23T01:30:36;98610.03;;;6.21;100.00
57114;BME280;42994;51.606;9.988;2023-02-23T01:33:04;98611.38;;;6.16;100.00
57114;BME280;42994;51.606;9.988;2023-02-23T01:35:32;98608.59;;;6.10;100.00
57114;BME280;42994;51.606;9.988;2023-02-23T01:37:59;98610.88;;;6.13;100.00
57114;BME280;42994;51.606;9.988;2023-02-23T01:40:26;98612.03;;;6.19;100.00
57114;BME280;42994;51.606;9.988;2023-02-23T01:42:58;98608.38;;;6.20;100.00
57114;BME280;42994;51.606;9.988;2023-02-23T01:45:28;98608.06;;;6.14;100.00
57114;BME280;42994;51.606;9.988;2023-02-23T01:47:57;98611.53;;;6.15;100.00
57114;BME280;42994;51.606;9.988;2023-02-23T01:50:28;98609.03;;;6.22;100.00
57114;BME280;42994;51.606;9.988;2023-02-23T01:52:57;98607.00;;;6.24;100.00
57114;BME280;42994;51.606;9.988;2023-02-23T01:55:25;98603.69;;;6.22;100.00
57114;BME280;42994;51.606;9.988;2023-02-23T01:57:57;98592.56;;;6.18;100.00
57114;BME280;42994;51.606;9.988;2023-02-23T02:00:25;98599.91;;;6.16;100.00
57114;BME280;42994;51.606;9.988;2023-02-23T02:02:52;98596.50;;;5.99;100.00
57114;BME280;42994;51.606;9.988;2023-02-23T02:05:20;98599.00;;;5.84;100.00
57114;BME280;42994;51.606;9.988;2023-02-23T02:07:49;98591.16;;;5.91;100.00
57114;BME280;42994;51.606;9.988;2023-02-23T02:10:26;98587.66;;;5.99;100.00
57114;BME280;42994;51.606;9.988;2023-02-23T02:13:06;98593.16;;;5.89;100.00
57114;BME280;42994;51.606;9.988;2023-02-23T02:15:42;98594.31;;;5.94;100.00
57114;BME280;42994;51.606;9.988;2023-02-23T02:18:25;98598.16;;;5.92;100.00
57114;BME280;42994;51.606;9.988;2023-02-23T02:21:17;98596.00;;;5.87;100.00
57114;BME280;42994;51.606;9.988;2023-02-23T02:27:10;98592.81;;;5.92;100.00
57114;BME280;42994;51.606;9.988;2023-02-23T02:30:11;98586.00;;;5.89;100.00
57114;BME280;42994;51.606;9.988;2023-02-23T02:39:14;98584.19;;;5.98;100.00
57114;BME280;42994;51.606;9.988;2023-02-23T02:41:52;98582.69;;;5.95;100.00
57114;BME280;42994;51.606;9.988;2023-02-23T02:44:28;98588.97;;;5.94;100.00
57114;BME280;42994;51.606;9.988;2023-02-23T02:46:59;98586.66;;;6.00;100.00
57114;BME280;42994;51.606;9.988;2023-02-23T02:49:31;98582.53;;;5.97;100.00
57114;BME280;42994;51.606;9.988;2023-02-23T02:52:10;98578.53;;;6.01;100.00
57114;BME280;42994;51.606;9.988;2023-02-23T02:54:45;98585.19;;;5.97;100.00
57114;BME280;42994;51.606;9.988;2023-02-23T02:57:16;98586.00;;;5.97;100.00
57114;BME280;42994;51.606;9.988;2023-02-23T02:59:46;98574.03;;;5.93;100.00
57114;BME280;42994;51.606;9.988;2023-02-23T03:02:31;98580.34;;;6.01;100.00
57114;BME280;42994;51.606;9.988;2023-02-23T03:05:19;98569.53;;;5.94;100.00
57114;BME280;42994;51.606;9.988;2023-02-23T03:08:11;98569.72;;;5.92;100.00
57114;BME280;42994;51.606;9.988;2023-02-23T03:11:04;98569.75;;;5.84;100.00
57114;BME280;42994;51.606;9.988;2023-02-23T03:14:00;98573.22;;;5.85;100.00
57114;BME280;42994;51.606;9.988;2023-02-23T03:16:52;98572.22;;;5.86;100.00
57114;BME280;42994;51.606;9.988;2023-02-23T03:19:45;98575.69;;;5.94;100.00
57114;BME280;42994;51.606;9.988;2023-02-23T03:22:34;98566.41;;;5.90;100.00
57114;BME280;42994;51.606;9.988;2023-02-23T03:25:25;98567.38;;;5.89;100.00
57114;BME280;42994;51.606;9.988;2023-02-23T03:28:16;98567.38;;;5.89;100.00
57114;BME280;42994;51.606;9.988;2023-02-23T03:31:08;98571.41;;;5.85;100.00
57114;BME280;42994;51.606;9.988;2023-02-23T03:34:01;98566.78;;;5.79;100.00
57114;BME280;42994;51.606;9.988;2023-02-23T03:36:53;98575.25;;;5.83;100.00
57114;BME280;42994;51.606;9.988;2023-02-23T03:39:44;98578.38;;;5.86;100.00
57114;BME280;42994;51.606;9.988;2023-02-23T03:42:31;98581.22;;;5.85;100.00
57114;BME280;42994;51.606;9.988;2023-02-23T03:45:23;98579.69;;;5.90;100.00
57114;BME280;42994;51.606;9.988;2023-02-23T03:48:10;98583.00;;;5.92;100.00
57114;BME280;42994;51.606;9.988;2023-02-23T03:50:58;98578.03;;;5.89;100.00
57114;BME280;42994;51.606;9.988;2023-02-23T03:53:49;98577.41;;;5.79;100.00
57114;BME280;42994;51.606;9.988;2023-02-23T03:56:37;98580.41;;;5.84;100.00
57114;BME280;42994;51.606;9.988;2023-02-23T03:59:24;98574.88;;;5.86;100.00
57114;BME280;42994;51.606;9.988;2023-02-23T04:02:15;98575.72;;;5.86;100.00
57114;BME280;42994;51.606;9.988;2023-02-23T04:05:04;98575.72;;;5.86;100.00
57114;BME280;42994;51.606;9.988;2023-02-23T04:07:51;98570.41;;;5.86;100.00
57114;BME280;42994;51.606;9.988;2023-02-23T04:10:43;98578.22;;;5.80;100.00
57114;BME280;42994;51.606;9.988;2023-02-23T04:13:29;98578.41;;;5.78;100.00
57114;BME280;42994;51.606;9.988;2023-02-23T04:15:59;98571.25;;;5.78;100.00
57114;BME280;42994;51.606;9.988;2023-02-23T04:18:28;98569.28;;;5.81;100.00
57114;BME280;42994;51.606;9.988;2023-02-23T04:20:56;98568.09;;;5.83;100.00
57114;BME280;42994;51.606;9.988;2023-02-23T04:23:23;98575.91;;;5.85;100.00
57114;BME280;42994;51.606;9.988;2023-02-23T04:25:51;98572.41;;;5.84;100.00
57114;BME280;42994;51.606;9.988;2023-02-23T04:28:18;98571.41;;;5.85;100.00
57114;BME280;42994;51.606;9.988;2023-02-23T04:30:45;98567.09;;;5.84;100.00
57114;BME280;42994;51.606;9.988;2023-02-23T04:33:12;98566.06;;;5.85;100.00
57114;BME280;42994;51.606;9.988;2023-02-23T04:35:40;98564.44;;;5.84;100.00
57114;BME280;42994;51.606;9.988;2023-02-23T04:38:07;98560.75;;;5.85;100.00
57114;BME280;42994;51.606;9.988;2023-02-23T04:40:34;98564.44;;;5.76;100.00
57114;BME280;42994;51.606;9.988;2023-02-23T04:43:00;98564.50;;;5.68;100.00
57114;BME280;42994;51.606;9.988;2023-02-23T04:45:27;98564.50;;;5.68;100.00
57114;BME280;42994;51.606;9.988;2023-02-23T04:47:54;98571.50;;;5.52;100.00
57114;BME280;42994;51.606;9.988;2023-02-23T04:50:20;98562.19;;;5.56;100.00
57114;BME280;42994;51.606;9.988;2023-02-23T04:52:49;98564.84;;;5.56;100.00
57114;BME280;42994;51.606;9.988;2023-02-23T04:55:19;98561.19;;;5.57;100.00
57114;BME280;42994;51.606;9.988;2023-02-23T04:57:46;98563.16;;;5.64;100.00
57114;BME280;42994;51.606;9.988;2023-02-23T05:00:14;98560.16;;;5.67;100.00
57114;BME280;42994;51.606;9.988;2023-02-23T05:02:41;98565.81;;;5.64;100.00
57114;BME280;42994;51.606;9.988;2023-02-23T05:05:09;98563.88;;;5.41;100.00
57114;BME280;42994;51.606;9.988;2023-02-23T05:07:36;98561.06;;;5.43;100.00
57114;BME280;42994;51.606;9.988;2023-02-23T05:10:06;98566.03;;;5.46;100.00
57114;BME280;42994;51.606;9.988;2023-02-23T05:12:33;98558.84;;;5.54;100.00
57114;BME280;42994;51.606;9.988;2023-02-23T05:14:59;98564.66;;;5.58;100.00
57114;BME280;42994;51.606;9.988;2023-02-23T05:17:26;98562.00;;;5.58;100.00
57114;BME280;42994;51.606;9.988;2023-02-23T05:19:53;98566.16;;;5.61;100.00
57114;BME280;42994;51.606;9.988;2023-02-23T05:22:20;98564.66;;;5.66;100.00
57114;BME280;42994;51.606;9.988;2023-02-23T05:24:47;98568.47;;;5.64;100.00
57114;BME280;42994;51.606;9.988;2023-02-23T05:27:15;98564.19;;;5.54;100.00
57114;BME280;42994;51.606;9.988;2023-02-23T05:29:42;98572.84;;;5.48;100.00
57114;BME280;42994;51.606;9.988;2023-02-23T05:32:08;98565.31;;;5.60;100.00
57114;BME280;42994;51.606;9.988;2023-02-23T05:34:35;98562.84;;;5.58;100.00
57114;BME280;42994;51.606;9.988;2023-02-23T05:37:03;98572.66;;;5.58;100.00
57114;BME280;42994;51.606;9.988;2023-02-23T05:39:30;98565.84;;;5.55;100.00
57114;BME280;42994;51.606;9.988;2023-02-23T05:41:56;98572.53;;;5.43;100.00
57114;BME280;42994;51.606;9.988;2023-02-23T05:44:24;98561.88;;;5.43;100.00
57114;BME280;42994;51.606;9.988;2023-02-23T05:46:52;98559.72;;;5.47;100.00
57114;BME280;42994;51.606;9.988;2023-02-23T05:49:19;98562.22;;;5.48;100.00
57114;BME280;42994;51.606;9.988;2023-02-23T05:51:45;98560.25;;;5.42;100.00
57114;BME280;42994;51.606;9.988;2023-02-23T05:54:12;98564.56;;;5.35;100.00
57114;BME280;42994;51.606;9.988;2023-02-23T05:56:40;98561.22;;;5.33;100.00
57114;BME280;42994;51.606;9.988;2023-02-23T05:59:07;98568.88;;;5.44;100.00
57114;BME280;42994;51.606;9.988;2023-02-23T06:01:35;98569.38;;;5.48;100.00
57114;BME280;42994;51.606;9.988;2023-02-23T06:04:01;98570.50;;;5.45;100.00
57114;BME280;42994;51.606;9.988;2023-02-23T06:06:28;98571.34;;;5.46;100.00
57114;BME280;42994;51.606;9.988;2023-02-23T06:08:54;98569.22;;;5.41;100.00
57114;BME280;42994;51.606;9.988;2023-02-23T06:11:21;98564.38;;;5.45;100.00
57114;BME280;42994;51.606;9.988;2023-02-23T06:13:48;98566.66;;;5.56;100.00
57114;BME280;42994;51.606;9.988;2023-02-23T06:16:14;98567.69;;;5.55;100.00
57114;BME280;42994;51.606;9.988;2023-02-23T06:18:43;98569.50;;;5.54;100.00
57114;BME280;42994;51.606;9.988;2023-02-23T06:21:09;98571.16;;;5.55;100.00
57114;BME280;42994;51.606;9.988;2023-02-23T06:23:36;98573.66;;;5.57;100.00
57114;BME280;42994;51.606;9.988;2023-02-23T06:26:03;98574.47;;;5.57;100.00
57114;BME280;42994;51.606;9.988;2023-02-23T06:28:30;98577.97;;;5.58;100.00
57114;BME280;42994;51.606;9.988;2023-02-23T06:30:56;98576.16;;;5.58;100.00
57114;BME280;42994;51.606;9.988;2023-02-23T06:33:23;98574.47;;;5.57;100.00
57114;BME280;42994;51.606;9.988;2023-02-23T06:35:51;98585.81;;;5.51;100.00
57114;BME280;42994;51.606;9.988;2023-02-23T06:38:19;98581.66;;;5.49;100.00
57114;BME280;42994;51.606;9.988;2023-02-23T06:40:46;98580.00;;;5.48;100.00
57114;BME280;42994;51.606;9.988;2023-02-23T06:43:12;98591.63;;;5.55;100.00
57114;BME280;42994;51.606;9.988;2023-02-23T06:45:39;98583.31;;;5.50;100.00
57114;BME280;42994;51.606;9.988;2023-02-23T06:48:06;98593.63;;;5.45;100.00
57114;BME280;42994;51.606;9.988;2023-02-23T06:50:33;98587.66;;;5.34;100.00
57114;BME280;42994;51.606;9.988;2023-02-23T06:53:01;98589.66;;;5.41;100.00
57114;BME280;42994;51.606;9.988;2023-02-23T06:55:27;98597.78;;;5.39;100.00
57114;BME280;42994;51.606;9.988;2023-02-23T06:57:54;98597.75;;;5.47;100.00
57114;BME280;42994;51.606;9.988;2023-02-23T07:00:21;98603.72;;;5.49;100.00
57114;BME280;42994;51.606;9.988;2023-02-23T07:02:48;98601.91;;;5.50;100.00
57114;BME280;42994;51.606;9.988;2023-02-23T07:05:15;98608.88;;;5.51;100.00
57114;BME280;42994;51.606;9.988;2023-02-23T07:07:42;98611.03;;;5.47;100.00
57114;BME280;42994;51.606;9.988;2023-02-23T07:10:11;98605.22;;;5.44;100.00
57114;BME280;42994;51.606;9.988;2023-02-23T07:12:38;98608.22;;;5.49;100.00
57114;BME280;42994;51.606;9.988;2023-02-23T07:15:05;98610.06;;;5.48;100.00
57114;BME280;42994;51.606;9.988;2023-02-23T07:17:32;98611.03;;;5.47;100.00
57114;BME280;42994;51.606;9.988;2023-02-23T07:19:58;98605.56;;;5.49;100.00
57114;BME280;42994;51.606;9.988;2023-02-23T07:22:25;98622.00;;;5.52;100.00
57114;BME280;42994;51.606;9.988;2023-02-23T07:24:54;98613.38;;;5.50;100.00
57114;BME280;42994;51.606;9.988;2023-02-23T07:27:22;98624.34;;;5.55;100.00
57114;BME280;42994;51.606;9.988;2023-02-23T07:29:49;98624.31;;;5.64;100.00
57114;BME280;42994;51.606;9.988;2023-02-23T07:32:15;98614.31;;;5.66;100.00
57114;BME280;42994;51.606;9.988;2023-02-23T07:34:42;98623.66;;;5.62;100.00
57114;BME280;42994;51.606;9.988;2023-02-23T07:37:10;98623.66;;;5.70;100.00
57114;BME280;42994;51.606;9.988;2023-02-23T07:39:36;98618.16;;;5.63;100.00
57114;BME280;42994;51.606;9.988;2023-02-23T07:42:03;98629.13;;;5.68;100.00
57114;BME280;42994;51.606;9.988;2023-02-23T07:44:31;98618.81;;;5.73;100.00
57114;BME280;42994;51.606;9.988;2023-02-23T07:46:58;98616.50;;;5.70;100.00
57114;BME280;42994;51.606;9.988;2023-02-23T07:49:24;98624.97;;;5.74;100.00
57114;BME280;42994;51.606;9.988;2023-02-23T07:51:51;98621.13;;;5.76;100.00
57114;BME280;42994;51.606;9.988;2023-02-23T07:54:17;98623.13;;;5.74;100.00
57114;BME280;42994;51.606;9.988;2023-02-23T07:56:44;98624.91;;;5.82;100.00
57114;BME280;42994;51.606;9.988;2023-02-23T07:59:10;98626.94;;;5.80;100.00
57114;BME280;42994;51.606;9.988;2023-02-23T08:01:39;98625.44;;;5.77;100.00
57114;BME280;42994;51.606;9.988;2023-02-23T08:04:06;98621.13;;;5.85;100.00
57114;BME280;42994;51.606;9.988;2023-02-23T08:06:32;98620.47;;;5.83;100.00
57114;BME280;42994;51.606;9.988;2023-02-23T08:09:00;98627.25;;;5.93;100.00
57114;BME280;42994;51.606;9.988;2023-02-23T08:11:27;98626.59;;;5.91;100.00
57114;BME280;42994;51.606;9.988;2023-02-23T08:13:53;98631.41;;;5.96;100.00
57114;BME280;42994;51.606;9.988;2023-02-23T08:16:24;98624.25;;;5.96;100.00
57114;BME280;42994;51.606;9.988;2023-02-23T08:18:52;98630.03;;;6.08;100.00
57114;BME280;42994;51.606;9.988;2023-02-23T08:21:18;98631.69;;;6.09;100.00
57114;BME280;42994;51.606;9.988;2023-02-23T08:23:45;98631.50;;;6.19;100.00
57114;BME280;42994;51.606;9.988;2023-02-23T08:26:12;98630.47;;;6.28;100.00
57114;BME280;42994;51.606;9.988;2023-02-23T08:28:38;98637.59;;;6.28;100.00
57114;BME280;42994;51.606;9.988;2023-02-23T08:31:08;98636.47;;;6.22;100.00
57114;BME280;42994;51.606;9.988;2023-02-23T08:33:34;98637.97;;;6.25;100.00
57114;BME280;42994;51.606;9.988;2023-02-23T08:36:05;98640.09;;;6.29;100.00
57114;BME280;42994;51.606;9.988;2023-02-23T08:38:31;98643.41;;;6.31;100.00
57114;BME280;42994;51.606;9.988;2023-02-23T08:41:01;98646.25;;;6.30;100.00
57114;BME280;42994;51.606;9.988;2023-02-23T08:43:28;98640.94;;;6.30;100.00
57114;BME280;42994;51.606;9.988;2023-02-23T08:45:54;98637.56;;;6.36;100.00
57114;BME280;42994;51.606;9.988;2023-02-23T08:48:21;98635.41;;;6.31;100.00
57114;BME280;42994;51.606;9.988;2023-02-23T08:50:48;98644.75;;;6.35;100.00
57114;BME280;42994;51.606;9.988;2023-02-23T08:53:16;98642.66;;;6.46;100.00
57114;BME280;42994;51.606;9.988;2023-02-23T08:55:43;98642.47;;;6.56;100.00
57114;BME280;42994;51.606;9.988;2023-02-23T08:58:10;98647.56;;;6.65;100.00
57114;BME280;42994;51.606;9.988;2023-02-23T09:00:37;98647.53;;;6.73;100.00
57114;BME280;42994;51.606;9.988;2023-02-23T09:03:04;98645.22;;;6.70;100.00
57114;BME280;42994;51.606;9.988;2023-02-23T09:05:31;98641.91;;;6.68;100.00
57114;BME280;42994;51.606;9.988;2023-02-23T09:07:58;98651.69;;;6.68;100.00
57114;BME280;42994;51.606;9.988;2023-02-23T09:10:26;98657.88;;;6.68;100.00
57114;BME280;42994;51.606;9.988;2023-02-23T09:12:53;98652.56;;;6.68;100.00
57114;BME280;42994;51.606;9.988;2023-02-23T09:15:21;98654.19;;;6.69;100.00
57114;BME280;42994;51.606;9.988;2023-02-23T09:17:47;98653.53;;;6.67;100.00
57114;BME280;42994;51.606;9.988;2023-02-23T09:20:16;98669.00;;;6.72;100.00
57114;BME280;42994;51.606;9.988;2023-02-23T09:22:43;98662.84;;;6.71;100.00
57114;BME280;42994;51.606;9.988;2023-02-23T09:25:13;98660.16;;;6.71;100.00
57114;BME280;42994;51.606;9.988;2023-02-23T09:27:44;98660.38;;;6.70;100.00
57114;BME280;42994;51.606;9.988;2023-02-23T09:30:11;98671.69;;;6.72;100.00
57114;BME280;42994;51.606;9.988;2023-02-23T09:32:39;98662.34;;;6.68;100.00
57114;BME280;42994;51.606;9.988;2023-02-23T09:35:06;98668.16;;;6.71;100.00
57114;BME280;42994;51.606;9.988;2023-02-23T09:37:33;98671.50;;;6.73;100.00
57114;BME280;42994;51.606;9.988;2023-02-23T09:40:00;98663.69;;;6.72;100.00
57114;BME280;42994;51.606;9.988;2023-02-23T09:42:35;98661.69;;;6.74;100.00
57114;BME280;42994;51.606;9.988;2023-02-23T09:45:14;98667.00;;;6.74;100.00
57114;BME280;42994;51.606;9.988;2023-02-23T09:47:51;98665.16;;;6.74;100.00
57114;BME280;42994;51.606;9.988;2023-02-23T09:50:26;98661.84;;;6.72;100.00
57114;BME280;42994;51.606;9.988;2023-02-23T09:52:56;98662.50;;;6.74;100.00
57114;BME280;42994;51.606;9.988;2023-02-23T09:55:25;98658.00;;;6.75;100.00
57114;BME280;42994;51.606;9.988;2023-02-23T09:57:52;98655.31;;;6.75;100.00
57114;BME280;42994;51.606;9.988;2023-02-23T10:00:25;98664.66;;;6.79;100.00
57114;BME280;42994;51.606;9.988;2023-02-23T10:03:05;98656.66;;;6.79;100.00
57114;BME280;42994;51.606;9.988;2023-02-23T10:05:39;98661.97;;;6.79;100.00
57114;BME280;42994;51.606;9.988;2023-02-23T10:08:22;98659.50;;;6.78;100.00
57114;BME280;42994;51.606;9.988;2023-02-23T10:10:58;98665.47;;;6.80;100.00
57114;BME280;42994;51.606;9.988;2023-02-23T10:13:37;98662.97;;;6.78;100.00
57114;BME280;42994;51.606;9.988;2023-02-23T10:16:16;98666.28;;;6.80;100.00
57114;BME280;42994;51.606;9.988;2023-02-23T10:18:50;98658.13;;;6.82;100.00
57114;BME280;42994;51.606;9.988;2023-02-23T10:21:26;98664.44;;;6.81;100.00
57114;BME280;42994;51.606;9.988;2023-02-23T10:23:59;98659.13;;;6.81;100.00
57114;BME280;42994;51.606;9.988;2023-02-23T10:26:32;98658.94;;;6.82;100.00
57114;BME280;42994;51.606;9.988;2023-02-23T10:28:59;98665.13;;;6.83;100.00
57114;BME280;42994;51.606;9.988;2023-02-23T10:31:32;98662.47;;;6.83;100.00
57114;BME280;42994;51.606;9.988;2023-02-23T10:34:02;98658.94;;;6.82;100.00
57114;BME280;42994;51.606;9.988;2023-02-23T10:36:35;98660.28;;;6.86;100.00
57114;BME280;42994;51.606;9.988;2023-02-23T10:39:05;98659.25;;;6.87;100.00
57114;BME280;42994;51.606;9.988;2023-02-23T10:41:33;98657.78;;;6.85;100.00
57114;BME280;42994;51.606;9.988;2023-02-23T10:44:00;98656.59;;;6.87;100.00
57114;BME280;42994;51.606;9.988;2023-02-23T10:46:34;98651.44;;;6.86;100.00
57114;BME280;42994;51.606;9.988;2023-02-23T10:49:02;98651.59;;;6.84;100.00
57114;BME280;42994;51.606;9.988;2023-02-23T10:51:36;98649.63;;;6.86;100.00
57114;BME280;42994;51.606;9.988;2023-02-23T10:54:35;98641.41;;;6.88;100.00
57114;BME280;42994;51.606;9.988;2023-02-23T10:57:03;98645.09;;;6.87;100.00
57114;BME280;42994;51.606;9.988;2023-02-23T10:59:30;98648.06;;;6.92;100.00
57114;BME280;42994;51.606;9.988;2023-02-23T11:02:14;98645.59;;;6.90;100.00
57114;BME280;42994;51.606;9.988;2023-02-23T11:04:50;98646.41;;;6.91;100.00
57114;BME280;42994;51.606;9.988;2023-02-23T11:07:22;98649.72;;;6.93;100.00
57114;BME280;42994;51.606;9.988;2023-02-23T11:09:49;98638.72;;;6.96;100.00
57114;BME280;42994;51.606;9.988;2023-02-23T11:12:19;98630.00;;;7.02;100.00
57114;BME280;42994;51.606;9.988;2023-02-23T11:14:47;98637.19;;;7.02;100.00
57114;BME280;42994;51.606;9.988;2023-02-23T11:17:28;98621.00;;;7.03;100.00
57114;BME280;42994;51.606;9.988;2023-02-23T11:20:00;98622.13;;;7.09;100.00
57114;BME280;42994;51.606;9.988;2023-02-23T11:22:31;98616.16;;;7.07;100.00
57114;BME280;42994;51.606;9.988;2023-02-23T11:24:59;98617.91;;;7.15;100.00
57114;BME280;42994;51.606;9.988;2023-02-23T11:27:28;98603.84;;;7.21;100.00
57114;BME280;42994;51.606;9.988;2023-02-23T11:29:56;98603.69;;;7.22;100.00
57114;BME280;42994;51.606;9.988;2023-02-23T11:32:28;98604.53;;;7.23;100.00
57114;BME280;42994;51.606;9.988;2023-02-23T11:35:26;98600.31;;;7.28;100.00
57114;BME280;42994;51.606;9.988;2023-02-23T11:37:54;98603.81;;;7.29;100.00
57114;BME280;42994;51.606;9.988;2023-02-23T11:40:22;98600.50;;;7.27;100.00
57114;BME280;42994;51.606;9.988;2023-02-23T11:42:51;98589.66;;;7.28;100.00
57114;BME280;42994;51.606;9.988;2023-02-23T11:45:20;98593.97;;;7.29;100.00
57114;BME280;42994;51.606;9.988;2023-02-23T11:47:50;98597.25;;;7.31;100.00
57114;BME280;42994;51.606;9.988;2023-02-23T11:50:23;98593.78;;;7.31;100.00
57114;BME280;42994;51.606;9.988;2023-02-23T11:52:55;98596.44;;;7.31;100.00
57114;BME280;42994;51.606;9.988;2023-02-23T11:55:22;98590.75;;;7.34;100.00
57114;BME280;42994;51.606;9.988;2023-02-23T11:57:50;98582.59;;;7.36;100.00
57114;BME280;42994;51.606;9.988;2023-02-23T12:00:25;98591.22;;;7.38;100.00
57114;BME280;42994;51.606;9.988;2023-02-23T12:02:57;98585.44;;;7.34;100.00
57114;BME280;42994;51.606;9.988;2023-02-23T12:05:26;98588.44;;;7.31;100.00
57114;BME280;42994;51.606;9.988;2023-02-23T12:07:58;98590.59;;;7.36;100.00
57114;BME280;42994;51.606;9.988;2023-02-23T12:10:30;98595.06;;;7.35;100.00
57114;BME280;42994;51.606;9.988;2023-02-23T12:13:08;98590.47;;;7.29;100.00
57114;BME280;42994;51.606;9.988;2023-02-23T12:15:44;98584.56;;;7.34;100.00
57114;BME280;42994;51.606;9.988;2023-02-23T12:18:29;98582.28;;;7.30;100.00
57114;BME280;42994;51.606;9.988;2023-02-23T12:21:03;98578.59;;;7.31;100.00
57114;BME280;42994;51.606;9.988;2023-02-23T12:23:40;98576.13;;;7.30;100.00
57114;BME280;42994;51.606;9.988;2023-02-23T12:26:12;98574.75;;;7.34;100.00
57114;BME280;42994;51.606;9.988;2023-02-23T12:28:47;98576.78;;;7.32;100.00
57114;BME280;42994;51.606;9.988;2023-02-23T12:31:22;98570.13;;;7.28;100.00
57114;BME280;42994;51.606;9.988;2023-02-23T12:33:57;98577.50;;;7.26;100.00
57114;BME280;42994;51.606;9.988;2023-02-23T12:36:29;98575.13;;;7.31;100.00
57114;BME280;42994;51.606;9.988;2023-02-23T12:39:02;98567.59;;;7.35;100.00
57114;BME280;42994;51.606;9.988;2023-02-23T12:41:35;98567.41;;;7.36;100.00
57114;BME280;42994;51.606;9.988;2023-02-23T12:44:09;98568.41;;;7.35;100.00
57114;BME280;42994;51.606;9.988;2023-02-23T12:46:43;98562.72;;;7.38;100.00
57114;BME280;42994;51.606;9.988;2023-02-23T12:49:21;98565.84;;;7.42;100.00
57114;BME280;42994;51.606;9.988;2023-02-23T12:51:53;98569.34;;;7.42;100.00
57114;BME280;42994;51.606;9.988;2023-02-23T12:54:22;98557.03;;;7.41;100.00
57114;BME280;42994;51.606;9.988;2023-02-23T12:56:55;98560.34;;;7.43;100.00
57114;BME280;42994;51.606;9.988;2023-02-23T12:59:48;98560.81;;;7.47;100.00
57114;BME280;42994;51.606;9.988;2023-02-23T13:02:22;98564.94;;;7.49;100.00
57114;BME280;42994;51.606;9.988;2023-02-23T13:05:17;98556.56;;;7.53;100.00
57114;BME280;42994;51.606;9.988;2023-02-23T13:07:54;98557.56;;;7.51;100.00
57114;BME280;42994;51.606;9.988;2023-02-23T13:10:28;98563.19;;;7.57;100.00
57114;BME280;42994;51.606;9.988;2023-02-23T13:13:04;98560.69;;;7.55;100.00
57114;BME280;42994;51.606;9.988;2023-02-23T13:15:45;98551.06;;;7.54;100.00
57114;BME280;42994;51.606;9.988;2023-02-23T13:18:20;98566.69;;;7.57;100.00
57114;BME280;42994;51.606;9.988;2023-02-23T13:20:53;98549.69;;;7.58;100.00
57114;BME280;42994;51.606;9.988;2023-02-23T13:23:26;98553.34;;;7.57;100.00
57114;BME280;42994;51.606;9.988;2023-02-23T13:26:00;98546.19;;;7.58;100.00
57114;BME280;42994;51.606;9.988;2023-02-23T13:28:40;98544.34;;;7.58;100.00
57114;BME280;42994;51.606;9.988;2023-02-23T13:31:18;98552.53;;;7.57;100.00
57114;BME280;42994;51.606;9.988;2023-02-23T13:33:47;98551.97;;;7.61;100.00